createdAt,value
2023-02-23T00:01:41.200Z,23.90
2023-02-23T00:04:12.000Z,20.35
2023-02-23T00:06:42.557Z,24.67
2023-02-23T00:09:16.014Z,23.77
2023-02-23T00:11:46.526Z,23.97
2023-02-23T00:14:17.464Z,24.53
2023-02-23T00:16:48.308Z,23.20
2023-02-23T00:19:19.087Z,23.00
2023-02-23T00:21:53.013Z,23.90
2023-02-23T00:24:25.054Z,25.57
2023-02-23T00:26:55.978Z,25.77
2023-02-23T00:29:26.623Z,23.43
2023-02-23T00:31:57.287Z,24.65
2023-02-23T00:34:28.761Z,23.43
2023-02-23T00:36:59.283Z,24.67
2023-02-23T00:39:29.848Z,23.62
2023-02-23T00:42:01.921Z,24.70
2023-02-23T00:44:34.024Z,26.23
2023-02-23T00:47:08.033Z,25.05
2023-02-23T00:49:39.986Z,27.27
2023-02-23T00:52:13.534Z,23.60
2023-02-23T00:54:44.166Z,24.40
2023-02-23T00:57:14.791Z,28.83
2023-02-23T00:59:48.088Z,23.85
2023-02-23T01:02:19.354Z,24.50
2023-02-23T01:04:49.781Z,24.85
2023-02-23T01:07:20.231Z,28.20
2023-02-23T01:09:50.851Z,23.50
2023-02-23T01:12:21.301Z,27.93
2023-02-23T01:14:51.804Z,27.00
2023-02-23T01:17:22.346Z,24.10
2023-02-23T01:19:53.040Z,26.53
2023-02-23T01:22:23.459Z,22.87
2023-02-23T01:24:53.869Z,23.05
2023-02-23T01:27:25.810Z,21.97
2023-02-23T01:29:56.288Z,27.33
2023-02-23T01:32:26.905Z,26.77
2023-02-23T01:34:57.298Z,26.87
2023-02-23T01:37:29.071Z,24.47
2023-02-23T01:39:59.494Z,23.83
2023-02-23T01:42:29.946Z,26.77
2023-02-23T01:45:15.787Z,23.25
2023-02-23T01:47:47.997Z,23.83
2023-02-23T01:50:19.958Z,32.03
2023-02-23T01:52:52.995Z,25.23
2023-02-23T01:55:24.530Z,23.18
2023-02-23T01:58:01.010Z,28.38
2023-02-23T02:00:33.532Z,26.87
2023-02-23T02:03:08.754Z,25.25
2023-02-23T02:05:40.336Z,23.80
2023-02-23T02:08:12.937Z,23.33
2023-02-23T02:10:45.102Z,27.07
2023-02-23T02:13:18.865Z,22.17
2023-02-23T02:15:55.071Z,22.77
2023-02-23T02:18:38.245Z,29.92
2023-02-23T02:21:29.587Z,27.87
2023-02-23T02:24:24.387Z,24.90
2023-02-23T02:27:26.558Z,27.30
2023-02-23T02:30:22.279Z,28.92
2023-02-23T02:33:11.212Z,27.85
2023-02-23T02:36:04.149Z,24.25
2023-02-23T02:38:58.916Z,30.00
2023-02-23T02:41:53.893Z,25.90
2023-02-23T02:44:30.698Z,25.20
2023-02-23T02:47:04.165Z,26.07
2023-02-23T02:49:42.088Z,27.40
2023-02-23T02:52:18.536Z,29.30
2023-02-23T02:54:54.754Z,29.73
2023-02-23T02:57:28.305Z,29.27
2023-02-23T03:00:17.533Z,27.43
2023-02-23T03:03:18.488Z,29.35
2023-02-23T03:06:13.043Z,25.97
2023-02-23T03:09:07.396Z,31.93
2023-02-23T03:12:01.164Z,27.90
2023-02-23T03:14:59.551Z,26.05
2023-02-23T03:18:09.509Z,28.60
2023-02-23T03:21:02.156Z,28.43
2023-02-23T03:24:03.153Z,29.77
2023-02-23T03:26:57.595Z,29.33
2023-02-23T03:30:01.217Z,28.67
2023-02-23T03:32:52.810Z,31.57
2023-02-23T03:35:44.264Z,25.33
2023-02-23T03:38:36.015Z,31.37
2023-02-23T03:41:27.519Z,25.40
2023-02-23T03:44:21.757Z,27.97
2023-02-23T03:47:11.855Z,27.27
2023-02-23T03:50:02.641Z,26.07
2023-02-23T03:52:57.079Z,30.13
2023-02-23T03:55:48.679Z,30.20
2023-02-23T03:58:41.077Z,30.53
2023-02-23T04:01:31.860Z,28.98
2023-02-23T04:04:22.932Z,30.35
2023-02-23T04:07:14.424Z,25.57
2023-02-23T04:10:03.413Z,27.90
2023-02-23T04:13:11.548Z,29.02
2023-02-23T04:15:53.429Z,32.63
2023-02-23T04:18:34.087Z,25.67
2023-02-23T04:21:07.483Z,29.23
2023-02-23T04:23:43.740Z,28.40
2023-02-23T04:26:15.727Z,28.90
2023-02-23T04:28:46.905Z,30.82
2023-02-23T04:31:22.833Z,29.63
2023-02-23T04:33:53.983Z,29.87
2023-02-23T04:36:27.452Z,33.02
2023-02-23T04:39:00.424Z,30.27
2023-02-23T04:41:32.491Z,29.40
2023-02-23T04:44:05.121Z,31.30
2023-02-23T04:46:37.640Z,27.73
2023-02-23T04:49:09.694Z,27.00
2023-02-23T04:51:40.523Z,30.97
2023-02-23T04:54:12.250Z,30.50
2023-02-23T04:56:45.231Z,27.23
2023-02-23T04:59:15.818Z,26.62
2023-02-23T05:01:47.454Z,31.23
2023-02-23T05:04:24.129Z,26.23
2023-02-23T05:06:54.899Z,32.30
2023-02-23T05:09:33.430Z,26.85
2023-02-23T05:12:05.547Z,30.23
2023-02-23T05:14:39.061Z,32.80
2023-02-23T05:17:10.420Z,32.13
2023-02-23T05:19:41.704Z,29.67
2023-02-23T05:22:13.381Z,29.07
2023-02-23T05:24:44.304Z,26.07
2023-02-23T05:27:18.756Z,32.75
2023-02-23T05:29:49.799Z,31.60
2023-02-23T05:32:20.384Z,34.60
2023-02-23T05:34:51.030Z,30.30
2023-02-23T05:37:23.257Z,34.23
2023-02-23T05:39:56.934Z,27.90
2023-02-23T05:42:28.164Z,32.43
2023-02-23T05:44:58.793Z,29.60
2023-02-23T05:47:29.435Z,32.73
2023-02-23T05:50:00.562Z,31.68
2023-02-23T05:52:33.759Z,27.17
2023-02-23T05:55:05.156Z,28.27
2023-02-23T05:57:38.822Z,24.93
2023-02-23T06:00:11.541Z,30.43
2023-02-23T06:02:44.145Z,32.97
2023-02-23T06:05:15.831Z,27.60
2023-02-23T06:07:51.287Z,30.13
2023-02-23T06:10:23.490Z,35.60
2023-02-23T06:12:57.774Z,27.23
2023-02-23T06:15:30.021Z,32.90
2023-02-23T06:18:01.623Z,30.83
2023-02-23T06:20:36.578Z,27.53
2023-02-23T06:23:10.027Z,30.30
2023-02-23T06:25:43.462Z,30.13
2023-02-23T06:28:15.674Z,27.35
2023-02-23T06:30:47.276Z,28.40
2023-02-23T06:33:18.909Z,33.27
2023-02-23T06:35:49.625Z,26.83
2023-02-23T06:38:20.678Z,31.40
2023-02-23T06:40:51.383Z,30.07
2023-02-23T06:43:23.340Z,28.70
2023-02-23T06:45:56.162Z,32.90
2023-02-23T06:48:27.154Z,30.80
2023-02-23T06:51:02.111Z,36.70
2023-02-23T06:53:33.461Z,32.23
2023-02-23T06:56:04.914Z,34.03
2023-02-23T06:58:35.780Z,29.63
2023-02-23T07:01:06.513Z,32.15
2023-02-23T07:03:40.894Z,31.53
2023-02-23T07:06:13.600Z,29.87
2023-02-23T07:08:46.738Z,31.12
2023-02-23T07:11:19.193Z,29.32
2023-02-23T07:13:52.514Z,35.17
2023-02-23T07:16:24.136Z,27.37
2023-02-23T07:18:57.493Z,33.30
2023-02-23T07:21:28.139Z,32.07
2023-02-23T07:23:59.023Z,28.80
2023-02-23T07:26:30.037Z,28.07
2023-02-23T07:29:02.062Z,31.90
2023-02-23T07:31:32.627Z,31.67
2023-02-23T07:34:05.589Z,29.60
2023-02-23T07:36:39.153Z,31.52
2023-02-23T07:39:09.985Z,27.67
2023-02-23T07:41:41.091Z,28.77
2023-02-23T07:44:11.555Z,35.53
2023-02-23T07:46:46.344Z,30.45
2023-02-23T07:49:16.931Z,34.37
2023-02-23T07:51:50.928Z,25.43
2023-02-23T07:54:22.488Z,29.80
2023-02-23T07:56:53.590Z,32.10
2023-02-23T07:59:24.030Z,34.20
2023-02-23T08:01:54.859Z,28.57
2023-02-23T08:04:26.044Z,29.77
2023-02-23T08:06:59.511Z,33.63
2023-02-23T08:09:31.602Z,30.83
2023-02-23T08:12:03.408Z,35.80
2023-02-23T08:14:35.417Z,32.37
2023-02-23T08:17:06.060Z,29.73
2023-02-23T08:19:38.429Z,27.00
2023-02-23T08:22:10.184Z,29.72
2023-02-23T08:24:45.386Z,30.57
2023-02-23T08:27:17.088Z,31.97
2023-02-23T08:29:49.220Z,25.27
2023-02-23T08:32:21.566Z,28.47
2023-02-23T08:34:56.828Z,28.23
2023-02-23T08:37:27.800Z,27.85
2023-02-23T08:40:00.668Z,28.55
2023-02-23T08:42:31.739Z,33.05
2023-02-23T08:45:04.442Z,32.15
2023-02-23T08:47:36.128Z,30.27
2023-02-23T08:50:09.686Z,30.67
2023-02-23T08:52:41.667Z,27.80
2023-02-23T08:55:14.017Z,27.55
2023-02-23T08:57:45.341Z,31.70
2023-02-23T09:00:17.484Z,27.00
2023-02-23T09:02:48.324Z,26.17
2023-02-23T09:05:19.364Z,28.57
2023-02-23T09:07:51.891Z,25.97
2023-02-23T09:10:26.708Z,28.10
2023-02-23T09:13:00.156Z,32.45
2023-02-23T09:15:32.009Z,28.38
2023-02-23T09:18:03.817Z,29.32
2023-02-23T09:20:34.634Z,25.43
2023-02-23T09:23:07.663Z,30.02
2023-02-23T09:25:45.462Z,29.63
2023-02-23T09:28:18.413Z,30.55
2023-02-23T09:30:49.444Z,28.52
2023-02-23T09:33:21.570Z,26.42
2023-02-23T09:35:56.576Z,26.57
2023-02-23T09:38:26.895Z,34.55
2023-02-23T09:40:58.986Z,28.80
2023-02-23T09:43:52.062Z,30.12
2023-02-23T09:46:41.044Z,27.17
2023-02-23T09:49:16.101Z,28.60
2023-02-23T09:51:51.952Z,28.87
2023-02-23T09:54:26.679Z,25.65
2023-02-23T09:57:00.509Z,31.62
2023-02-23T09:59:33.028Z,31.40
2023-02-23T10:02:20.400Z,30.20
2023-02-23T10:04:56.836Z,28.15
2023-02-23T10:07:32.980Z,31.35
2023-02-23T10:10:26.404Z,30.25
2023-02-23T10:13:21.050Z,26.20
2023-02-23T10:16:10.015Z,29.27
2023-02-23T10:19:07.443Z,27.05
2023-02-23T10:21:44.148Z,22.80
2023-02-23T10:24:20.583Z,27.80
2023-02-23T10:26:55.177Z,27.87
2023-02-23T10:29:35.818Z,23.77
2023-02-23T10:32:15.626Z,26.27
2023-02-23T10:34:48.682Z,25.95
2023-02-23T10:37:20.568Z,24.20
2023-02-23T10:39:51.873Z,25.52
2023-02-23T10:42:30.072Z,26.17
2023-02-23T10:45:02.583Z,23.87
2023-02-23T10:47:40.033Z,26.07
2023-02-23T10:50:14.369Z,28.17
2023-02-23T10:52:47.594Z,24.75
2023-02-23T10:55:32.699Z,23.77
2023-02-23T10:58:18.385Z,24.65
2023-02-23T11:01:05.370Z,24.00
2023-02-23T11:03:50.011Z,23.35
2023-02-23T11:06:39.022Z,28.07
2023-02-23T11:09:44.422Z,26.27
2023-02-23T11:12:07.487Z,27.85
2023-02-23T11:14:37.860Z,26.80
2023-02-23T11:17:15.906Z,29.57
2023-02-23T11:19:47.189Z,25.17
2023-02-23T11:22:29.250Z,27.37
2023-02-23T11:25:01.877Z,28.85
2023-02-23T11:27:35.848Z,26.10
2023-02-23T11:30:07.882Z,27.15
2023-02-23T11:32:40.706Z,24.80
2023-02-23T11:35:26.216Z,29.18
2023-02-23T11:37:58.379Z,28.73
2023-02-23T11:40:32.005Z,26.12
2023-02-23T11:43:12.642Z,26.15
2023-02-23T11:45:55.391Z,27.25
2023-02-23T11:48:40.781Z,28.42
2023-02-23T11:51:15.926Z,26.87
2023-02-23T11:53:49.629Z,28.70
2023-02-23T11:56:28.339Z,28.67
2023-02-23T11:59:04.555Z,29.23
2023-02-23T12:01:50.033Z,27.13
2023-02-23T12:04:34.567Z,28.15
2023-02-23T12:07:24.801Z,29.87
2023-02-23T12:10:02.968Z,28.62
2023-02-23T12:12:42.426Z,29.23
2023-02-23T12:15:15.981Z,28.62
2023-02-23T12:17:50.761Z,24.63
2023-02-23T12:20:32.669Z,26.23
2023-02-23T12:23:06.572Z,27.55
2023-02-23T12:26:01.569Z,28.55
2023-02-23T12:28:41.776Z,29.32
2023-02-23T12:31:24.576Z,24.35
2023-02-23T12:33:58.083Z,25.92
2023-02-23T12:36:32.036Z,28.70
2023-02-23T12:39:11.217Z,25.82
2023-02-23T12:41:47.626Z,25.95
2023-02-23T12:47:47.070Z,26.35
2023-02-23T12:50:40.045Z,26.23
2023-02-23T12:53:23.699Z,27.85
2023-02-23T12:56:06.071Z,25.65
2023-02-23T12:58:45.680Z,27.25
2023-02-23T13:01:34.169Z,29.35
2023-02-23T13:04:41.096Z,27.62
2023-02-23T13:07:46.662Z,24.37
2023-02-23T13:10:38.618Z,27.32
2023-02-23T13:13:33.402Z,27.27
2023-02-23T13:16:11.993Z,25.92
2023-02-23T13:18:47.600Z,27.95
2023-02-23T13:21:49.469Z,29.92
2023-02-23T13:24:38.514Z,32.90
2023-02-23T13:27:28.933Z,26.97
2023-02-23T13:29:59.694Z,30.48
2023-02-23T13:32:33.312Z,29.07
2023-02-23T13:35:12.697Z,27.25
2023-02-23T13:37:59.566Z,28.17
2023-02-23T13:40:39.041Z,27.65
2023-02-23T13:43:24.384Z,31.35
2023-02-23T13:46:21.851Z,31.02
2023-02-23T13:49:04.305Z,27.67
2023-02-23T13:51:37.959Z,30.40
2023-02-23T13:54:20.259Z,30.12
2023-02-23T13:56:59.546Z,30.85
2023-02-23T13:59:34.072Z,31.23
2023-02-23T14:02:27.216Z,31.97
2023-02-23T14:05:19.115Z,32.98
2023-02-23T14:07:56.118Z,29.57
2023-02-23T14:10:29.855Z,29.37
2023-02-23T14:13:19.580Z,32.20
2023-02-23T14:15:54.858Z,29.60
2023-02-23T14:18:31.252Z,32.10
2023-02-23T14:21:26.096Z,30.82
2023-02-23T14:24:15.729Z,33.08
2023-02-23T14:27:38.504Z,31.95
2023-02-23T14:30:14.507Z,35.25
2023-02-23T14:32:47.762Z,34.58
2023-02-23T14:35:51.040Z,33.30
2023-02-23T14:38:47.129Z,33.35
2023-02-23T14:41:09.046Z,34.38
2023-02-23T14:43:42.858Z,34.98
2023-02-23T14:46:21.862Z,34.58
2023-02-23T14:49:04.802Z,34.38
2023-02-23T14:51:42.532Z,35.80
2023-02-23T14:54:37.244Z,37.42
2023-02-23T14:57:27.387Z,37.83
2023-02-23T15:00:01.231Z,38.98
2023-02-23T15:02:40.760Z,38.33
2023-02-23T15:05:20.078Z,43.05
2023-02-23T15:07:57.807Z,39.18
2023-02-23T15:10:43.418Z,40.40
2023-02-23T15:13:23.977Z,40.30
2023-02-23T15:16:03.554Z,41.05
2023-02-23T15:18:40.223Z,42.35
2023-02-23T15:21:16.540Z,37.28
2023-02-23T15:23:50.818Z,42.20
2023-02-23T15:26:30.043Z,43.23
2023-02-23T15:29:17.230Z,38.65
2023-02-23T15:31:52.037Z,40.75
2023-02-23T15:34:26.591Z,43.28
2023-02-23T15:37:06.243Z,45.00
2023-02-23T15:39:40.191Z,42.10
2023-02-23T15:42:13.564Z,41.40
2023-02-23T15:44:45.267Z,45.48
2023-02-23T15:47:28.567Z,43.98
2023-02-23T15:50:11.221Z,47.05
2023-02-23T15:52:50.783Z,44.98
2023-02-23T15:55:27.982Z,45.95
2023-02-23T15:58:01.268Z,48.65
2023-02-23T16:00:36.130Z,51.37
2023-02-23T16:03:09.109Z,49.27
2023-02-23T16:05:46.459Z,46.60
2023-02-23T16:08:27.044Z,50.75
2023-02-23T16:11:03.330Z,46.83
2023-02-23T16:13:34.511Z,47.78
2023-02-23T16:16:11.903Z,44.30
2023-02-23T16:18:44.901Z,56.60
2023-02-23T16:21:21.436Z,49.25
2023-02-23T16:23:55.386Z,55.65
2023-02-23T16:26:49.916Z,56.75
2023-02-23T16:29:23.882Z,51.55
2023-02-23T16:31:59.791Z,55.20
2023-02-23T16:34:39.178Z,61.13
2023-02-23T16:37:18.915Z,63.30
2023-02-23T16:39:49.872Z,55.20
2023-02-23T16:42:29.406Z,62.50
2023-02-23T16:45:03.211Z,62.15
2023-02-23T16:47:38.598Z,62.17
2023-02-23T16:50:21.766Z,63.52
2023-02-23T16:52:54.121Z,65.65
2023-02-23T16:55:26.746Z,69.32
2023-02-23T16:58:02.984Z,67.65
2023-02-23T17:00:34.794Z,72.92
2023-02-23T17:03:09.936Z,67.25
2023-02-23T17:05:43.560Z,72.70
2023-02-23T17:08:14.293Z,69.60
2023-02-23T17:10:49.070Z,72.65
2023-02-23T17:13:22.295Z,73.78
2023-02-23T17:15:58.043Z,78.42
2023-02-23T17:18:31.407Z,77.58
2023-02-23T17:21:04.628Z,77.92
2023-02-23T17:23:52.008Z,72.92
2023-02-23T17:26:25.932Z,80.85
2023-02-23T17:28:56.557Z,79.72
2023-02-23T17:31:27.725Z,75.05
2023-02-23T17:33:58.669Z,84.75
2023-02-23T17:36:31.760Z,80.80
2023-02-23T17:39:03.244Z,81.55
2023-02-23T17:41:34.251Z,88.07
2023-02-23T17:44:06.858Z,80.70
2023-02-23T17:46:37.505Z,80.22
2023-02-23T17:49:09.508Z,82.15
2023-02-23T17:51:41.547Z,84.13
2023-02-23T17:54:14.981Z,86.87
2023-02-23T17:56:45.782Z,83.10
2023-02-23T17:59:16.447Z,87.40
2023-02-23T18:01:49.159Z,87.10
2023-02-23T18:04:21.815Z,86.97
2023-02-23T18:06:52.599Z,85.47
2023-02-23T18:09:25.346Z,84.32
2023-02-23T18:11:56.493Z,86.75
2023-02-23T18:14:27.758Z,87.08
2023-02-23T18:16:58.628Z,90.45
2023-02-23T18:19:30.859Z,98.72
2023-02-23T18:22:01.279Z,92.95
2023-02-23T18:24:32.532Z,92.25
2023-02-23T18:27:03.261Z,95.62
2023-02-23T18:29:36.773Z,93.27
2023-02-23T18:32:09.288Z,93.05
2023-02-23T18:34:41.591Z,94.00
2023-02-23T18:37:12.097Z,95.55
2023-02-23T18:39:45.146Z,86.97
2023-02-23T18:42:17.400Z,87.25
2023-02-23T18:44:48.145Z,84.55
2023-02-23T18:47:19.290Z,87.25
2023-02-23T18:49:50.026Z,90.50
2023-02-23T18:52:20.795Z,87.55
2023-02-23T18:54:51.473Z,77.90
2023-02-23T18:57:29.532Z,86.30
2023-02-23T19:00:00.124Z,85.50
2023-02-23T19:02:31.051Z,81.37
2023-02-23T19:05:03.099Z,84.45
2023-02-23T19:07:35.834Z,87.78
2023-02-23T19:10:12.299Z,84.52
2023-02-23T19:15:33.365Z,90.72
2023-02-23T19:18:04.793Z,90.35
2023-02-23T19:20:36.217Z,86.00
2023-02-23T19:23:08.069Z,90.28
2023-02-23T19:25:38.732Z,84.40
2023-02-23T19:28:11.986Z,87.55
2023-02-23T19:30:46.902Z,83.60
2023-02-23T19:33:18.839Z,83.90
2023-02-23T19:35:50.993Z,85.97
2023-02-23T19:38:22.735Z,83.87
2023-02-23T19:40:55.013Z,77.67
2023-02-23T19:43:28.500Z,77.67
2023-02-23T19:46:05.275Z,74.30
2023-02-23T19:48:37.254Z,73.12
2023-02-23T19:51:13.285Z,79.12
2023-02-23T19:53:43.899Z,70.00
2023-02-23T19:56:16.958Z,70.47
2023-02-23T19:58:50.286Z,60.30
2023-02-23T20:01:23.030Z,55.48
2023-02-23T20:03:59.492Z,49.58
2023-02-23T20:06:34.597Z,45.60
2023-02-23T20:09:06.177Z,43.00
2023-02-23T20:11:37.483Z,43.35
2023-02-23T20:14:08.389Z,44.93
2023-02-23T20:16:39.279Z,42.30
2023-02-23T20:19:11.531Z,43.42
2023-02-23T20:21:43.477Z,45.00
2023-02-23T20:24:14.131Z,42.83
2023-02-23T20:26:46.515Z,51.17
2023-02-23T20:29:19.267Z,46.00
2023-02-23T20:31:52.167Z,47.75
2023-02-23T20:34:24.785Z,46.77
2023-02-23T20:36:56.799Z,49.25
2023-02-23T20:39:29.110Z,44.15
2023-02-23T20:42:00.393Z,55.90
2023-02-23T20:44:32.942Z,53.58
2023-02-23T20:47:07.395Z,54.20
2023-02-23T20:49:39.031Z,55.55
2023-02-23T20:52:09.649Z,64.07
2023-02-23T20:54:40.367Z,62.10
2023-02-23T20:57:11.764Z,61.15
2023-02-23T20:59:44.148Z,64.58
2023-02-23T21:02:15.466Z,67.55
2023-02-23T21:04:47.519Z,62.53
2023-02-23T21:07:18.110Z,71.92
2023-02-23T21:09:48.725Z,68.10
2023-02-23T21:12:19.496Z,78.20
2023-02-23T21:14:50.589Z,72.62
2023-02-23T21:17:21.180Z,73.00
2023-02-23T21:19:54.869Z,72.87
2023-02-23T21:22:25.468Z,74.20
2023-02-23T21:25:00.007Z,77.45
2023-02-23T21:27:31.443Z,74.00
2023-02-23T21:30:02.124Z,71.05
2023-02-23T21:32:34.584Z,72.27
2023-02-23T21:35:05.478Z,74.30
2023-02-23T21:37:37.827Z,77.82
2023-02-23T21:40:11.461Z,71.20
2023-02-23T21:42:43.958Z,73.75
2023-02-23T21:45:14.568Z,70.37
2023-02-23T21:47:47.469Z,73.28
2023-02-23T21:50:20.123Z,71.45
2023-02-23T21:52:52.454Z,68.62
2023-02-23T21:55:23.500Z,58.90
2023-02-23T21:57:57.817Z,59.88
2023-02-23T22:00:30.037Z,68.60
2023-02-23T22:03:01.328Z,66.92
2023-02-23T22:05:33.693Z,67.75
2023-02-23T22:08:04.372Z,66.47
2023-02-23T22:10:35.968Z,70.05
2023-02-23T22:13:06.566Z,67.20
2023-02-23T22:15:37.678Z,62.88
2023-02-23T22:18:09.331Z,64.77
2023-02-23T22:20:40.290Z,63.20
2023-02-23T22:23:13.910Z,67.20
2023-02-23T22:25:46.206Z,63.63
2023-02-23T22:28:17.329Z,69.75
2023-02-23T22:30:49.477Z,67.37
2023-02-23T22:33:21.360Z,66.30
2023-02-23T22:35:55.562Z,62.67
2023-02-23T22:38:27.838Z,61.53
2023-02-23T22:40:59.470Z,68.33
2023-02-23T22:43:30.764Z,62.03
2023-02-23T22:46:03.320Z,64.65
2023-02-23T22:48:36.550Z,68.40
2023-02-23T22:51:07.773Z,58.85
2023-02-23T22:53:39.640Z,62.43
2023-02-23T22:56:10.667Z,57.83
2023-02-23T22:58:42.393Z,63.70
2023-02-23T23:01:13.349Z,65.85
2023-02-23T23:03:46.193Z,59.83
2023-02-23T23:06:27.036Z,61.45
2023-02-23T23:08:58.804Z,56.33
2023-02-23T23:11:31.121Z,57.05
2023-02-23T23:14:02.219Z,56.25
2023-02-23T23:16:35.093Z,52.03
2023-02-23T23:19:10.394Z,52.40
2023-02-23T23:21:44.024Z,53.02
2023-02-23T23:24:18.813Z,56.40
2023-02-23T23:26:53.969Z,58.50
2023-02-23T23:29:25.807Z,55.80
2023-02-23T23:31:58.412Z,52.43
2023-02-23T23:34:29.027Z,56.77
2023-02-23T23:37:01.199Z,53.35
2023-02-23T23:39:31.689Z,55.50
2023-02-23T23:42:02.175Z,54.80
2023-02-23T23:44:34.265Z,52.03
2023-02-23T23:47:08.038Z,46.20
2023-02-23T23:49:41.843Z,50.33
2023-02-23T23:52:15.458Z,46.03
2023-02-23T23:54:48.816Z,50.28
2023-02-23T23:57:20.127Z,45.65
2023-02-23T23:59:51.319Z,40.60
